Time;durP1;ratioP1;P1;durP2;ratioP2;P2;SDS_P1;SDS_P2;PMS_P1;PMS_P2;Temp;Humidity;BMP_temperature;BMP_pressure;BME280_temperature;BME280_humidity;BME280_pressure;Samples;Min_cycle;Max_cycle;Signal;HPM_P1;HPM_P2
2022/11/24 00:01:26;;;;;;;11.70;3.17;;;14.50;96.00;;;;;;5054933;28;20043;-81
2022/11/24 00:04:02;;;;;;;13.93;3.15;;;14.50;96.10;;;;;;5053804;28;20419;-80
2022/11/24 00:06:28;;;;;;;12.10;2.38;;;14.50;95.90;;;;;;5055161;28;20017;-80
2022/11/24 00:08:54;;;;;;;11.93;2.72;;;14.60;95.90;;;;;;5054151;28;20020;-80
2022/11/24 00:11:23;;;;;;;11.52;2.95;;;14.60;95.90;;;;;;5055128;28;20029;-81
2022/11/24 00:13:49;;;;;;;16.05;2.85;;;14.50;95.90;;;;;;5054055;28;20461;-81
2022/11/24 00:16:19;;;;;;;8.32;2.58;;;14.50;95.90;;;;;;5054859;28;20013;-81
2022/11/24 00:18:47;;;;;;;10.07;2.47;;;14.50;96.00;;;;;;5055091;28;20029;-81
2022/11/24 00:21:14;;;;;;;9.23;2.35;;;14.50;95.80;;;;;;5053728;28;20132;-81
2022/11/24 00:23:40;;;;;;;11.23;3.13;;;14.50;96.00;;;;;;5055373;28;20045;-80
2022/11/24 00:26:11;;;;;;;12.55;3.00;;;14.50;95.90;;;;;;5054953;28;20053;-81
2022/11/24 00:28:37;;;;;;;7.15;2.03;;;14.50;96.00;;;;;;5054893;28;20100;-81
2022/11/24 00:31:05;;;;;;;8.65;2.63;;;14.50;96.10;;;;;;5054725;28;20099;-81
2022/11/24 00:33:31;;;;;;;7.20;2.25;;;14.50;96.00;;;;;;5053791;28;20445;-80
2022/11/24 00:35:57;;;;;;;9.45;2.75;;;14.50;96.10;;;;;;5054607;28;20021;-82
2022/11/24 00:38:23;;;;;;;14.18;2.75;;;14.50;96.00;;;;;;5054843;28;20017;-81
2022/11/24 00:40:49;;;;;;;13.48;2.90;;;14.50;95.80;;;;;;5053120;28;20044;-80
2022/11/24 00:43:15;;;;;;;14.15;2.42;;;14.50;96.10;;;;;;5054695;28;20033;-80
2022/11/24 00:45:41;;;;;;;12.98;3.10;;;14.50;95.80;;;;;;5054352;28;20390;-81
2022/11/24 00:48:07;;;;;;;8.88;3.13;;;14.50;96.00;;;;;;5054677;28;20029;-80
2022/11/24 00:50:32;;;;;;;15.75;3.38;;;14.50;95.70;;;;;;5054422;28;20028;-81
2022/11/24 00:52:58;;;;;;;10.88;2.80;;;14.50;95.60;;;;;;5054601;28;20025;-80
2022/11/24 00:55:23;;;;;;;11.82;2.55;;;14.50;95.80;;;;;;5054264;28;20029;-81
2022/11/24 00:57:49;;;;;;;11.30;2.85;;;14.50;95.90;;;;;;5054454;28;20025;-81
2022/11/24 01:00:15;;;;;;;8.20;2.15;;;14.50;95.80;;;;;;5052728;28;20110;-81
2022/11/24 01:02:41;;;;;;;11.82;2.83;;;14.40;95.80;;;;;;5054280;28;20064;-81
2022/11/24 01:05:07;;;;;;;11.20;2.40;;;14.50;95.70;;;;;;5054511;28;20110;-81
2022/11/24 01:07:32;;;;;;;12.18;2.85;;;14.50;95.80;;;;;;5054160;28;20029;-81
2022/11/24 01:09:58;;;;;;;12.35;2.97;;;14.50;95.70;;;;;;5054453;28;20021;-81
2022/11/24 01:12:23;;;;;;;9.43;2.88;;;14.50;95.60;;;;;;5054403;28;20047;-81
2022/11/24 01:14:49;;;;;;;9.85;2.63;;;14.50;95.80;;;;;;5054688;28;20021;-81
2022/11/24 01:17:14;;;;;;;11.55;3.03;;;14.50;95.60;;;;;;5054887;28;20025;-81
2022/11/24 01:19:40;;;;;;;10.70;2.80;;;14.50;95.50;;;;;;5053937;28;20055;-81
2022/11/24 01:22:06;;;;;;;12.43;3.00;;;14.50;95.60;;;;;;5053662;28;20413;-81
2022/11/24 01:24:31;;;;;;;11.73;3.13;;;14.50;95.60;;;;;;5054050;28;20534;-81
2022/11/24 01:26:58;;;;;;;9.05;3.38;;;14.50;95.70;;;;;;5053435;28;20021;-81
2022/11/24 01:29:24;;;;;;;14.27;3.03;;;14.50;95.80;;;;;;5053345;28;20103;-81
2022/11/24 01:31:50;;;;;;;12.57;2.78;;;14.50;95.70;;;;;;5053749;28;20029;-81
2022/11/24 01:34:16;;;;;;;11.70;2.35;;;14.50;95.70;;;;;;5053762;28;20051;-80
2022/11/24 01:36:41;;;;;;;11.95;3.33;;;14.50;95.80;;;;;;5053476;28;20025;-81
2022/11/24 01:39:07;;;;;;;12.88;2.90;;;14.50;95.60;;;;;;5053762;28;20082;-80
2022/11/24 01:41:34;;;;;;;12.93;3.10;;;14.50;95.60;;;;;;5053188;28;20036;-80
2022/11/24 01:44:00;;;;;;;10.10;2.63;;;14.50;95.60;;;;;;5053355;28;20024;-80
2022/11/24 01:46:40;;;;;;;11.50;2.53;;;14.50;95.60;;;;;;5053374;28;20029;-81
2022/11/24 01:49:26;;;;;;;13.75;3.25;;;14.40;95.70;;;;;;5053633;28;20388;-81
2022/11/24 01:52:11;;;;;;;12.18;2.90;;;14.40;95.60;;;;;;5052249;28;20131;-81
2022/11/24 01:54:58;;;;;;;14.07;3.03;;;14.50;95.60;;;;;;5052006;28;20604;-81
2022/11/24 01:57:37;;;;;;;14.18;3.13;;;14.50;95.70;;;;;;5052590;28;20107;-80
2022/11/24 02:00:09;;;;;;;12.77;2.92;;;14.40;95.70;;;;;;5051936;28;20467;-81
2022/11/24 02:02:34;;;;;;;18.33;4.10;;;14.40;95.50;;;;;;5053196;28;20033;-81
2022/11/24 02:05:15;;;;;;;10.65;2.28;;;14.40;95.50;;;;;;5053005;28;20040;-81
2022/11/24 02:07:41;;;;;;;10.63;2.83;;;14.40;95.70;;;;;;5053002;28;20035;-81
2022/11/24 02:10:13;;;;;;;9.07;2.33;;;14.40;95.70;;;;;;5053107;28;20017;-81
2022/11/24 02:12:42;;;;;;;18.85;3.45;;;14.40;95.80;;;;;;5052533;28;20068;-81
2022/11/24 02:15:09;;;;;;;12.18;3.03;;;14.40;95.60;;;;;;5053084;28;20025;-80
2022/11/24 02:17:34;;;;;;;18.17;3.03;;;14.50;95.70;;;;;;5052832;28;20174;-81
2022/11/24 02:20:04;;;;;;;9.02;2.60;;;14.50;95.60;;;;;;5052878;28;20442;-81
2022/11/24 02:22:39;;;;;;;15.52;3.03;;;14.50;95.60;;;;;;5053275;28;20028;-81
2022/11/24 02:25:14;;;;;;;13.27;2.42;;;14.40;95.70;;;;;;5052868;28;20025;-81
2022/11/24 02:27:43;;;;;;;9.90;2.60;;;14.40;95.70;;;;;;5050966;28;20170;-81
2022/11/24 02:30:09;;;;;;;9.73;2.05;;;14.40;95.80;;;;;;5052739;28;20386;-80
2022/11/24 02:32:36;;;;;;;15.00;3.35;;;14.50;95.60;;;;;;5052673;28;20037;-82
2022/11/24 02:35:04;;;;;;;9.63;2.33;;;14.50;95.60;;;;;;5052893;28;20023;-82
2022/11/24 02:37:29;;;;;;;12.65;2.88;;;14.40;95.70;;;;;;5052562;28;20032;-81
2022/11/24 02:39:55;;;;;;;11.52;2.92;;;14.40;95.70;;;;;;5052560;28;20021;-82
2022/11/24 02:42:21;;;;;;;10.07;2.53;;;14.50;95.80;;;;;;5052569;28;20033;-82
2022/11/24 02:44:50;;;;;;;9.90;2.70;;;14.50;95.60;;;;;;5052559;28;20025;-82
2022/11/24 02:47:15;;;;;;;9.75;2.10;;;14.40;95.50;;;;;;5053026;28;20091;-83
2022/11/24 02:49:41;;;;;;;9.05;2.22;;;14.40;95.60;;;;;;5052574;28;20470;-82
2022/11/24 02:52:07;;;;;;;12.35;2.67;;;14.40;95.60;;;;;;5052719;28;20029;-83
2022/11/24 02:54:33;;;;;;;10.43;2.55;;;14.40;95.70;;;;;;5052372;28;20025;-82
2022/11/24 02:56:58;;;;;;;9.13;2.00;;;14.50;95.60;;;;;;5052564;28;20473;-82
2022/11/24 02:59:24;;;;;;;9.02;2.63;;;14.50;95.60;;;;;;5051093;28;20017;-82
2022/11/24 03:01:49;;;;;;;5.88;1.60;;;14.40;95.50;;;;;;5052611;28;20398;-82
2022/11/24 03:04:15;;;;;;;7.25;1.85;;;14.40;95.30;;;;;;5052597;28;20028;-81
2022/11/24 03:06:42;;;;;;;6.72;1.98;;;14.40;95.40;;;;;;5052600;28;20060;-82
2022/11/24 03:09:08;;;;;;;8.13;1.80;;;14.40;95.50;;;;;;5052005;28;20025;-81
2022/11/24 03:11:34;;;;;;;7.03;1.40;;;14.40;95.30;;;;;;5052478;28;20029;-82
2022/11/24 03:13:59;;;;;;;7.57;1.80;;;14.40;95.30;;;;;;5052449;28;20082;-82
2022/11/24 03:16:25;;;;;;;5.90;0.95;;;14.40;95.30;;;;;;5052865;28;20096;-82
2022/11/24 03:18:51;;;;;;;4.07;0.65;;;14.40;94.90;;;;;;5055001;28;20070;-82
2022/11/24 03:21:17;;;;;;;4.53;0.98;;;14.30;94.50;;;;;;5055731;28;20062;-81
2022/11/24 03:23:42;;;;;;;3.97;1.17;;;14.30;94.50;;;;;;5055567;28;20029;-82
2022/11/24 03:26:17;;;;;;;5.30;1.40;;;14.20;95.00;;;;;;5055807;28;20078;-81
2022/11/24 03:28:43;;;;;;;5.90;1.40;;;14.20;95.10;;;;;;5055597;28;20028;-82
2022/11/24 03:31:10;;;;;;;5.60;1.23;;;14.20;95.10;;;;;;5055569;28;20029;-81
2022/11/24 03:33:36;;;;;;;7.20;1.10;;;14.20;94.90;;;;;;5052057;28;20025;-82
2022/11/24 03:36:02;;;;;;;4.30;1.17;;;14.20;95.00;;;;;;5052318;28;20025;-82
2022/11/24 03:38:28;;;;;;;3.88;1.00;;;14.20;95.10;;;;;;5051987;28;20041;-82
2022/11/24 03:40:54;;;;;;;4.80;1.20;;;14.20;95.20;;;;;;5054657;28;20095;-82
2022/11/24 03:43:19;;;;;;;5.50;1.52;;;14.20;95.30;;;;;;5055871;28;20028;-82
2022/11/24 03:45:46;;;;;;;3.80;0.95;;;14.20;95.40;;;;;;5055693;28;20025;-81
2022/11/24 03:48:12;;;;;;;8.65;1.00;;;14.20;95.10;;;;;;5055886;28;20044;-82
2022/11/24 03:50:38;;;;;;;5.85;1.10;;;14.10;95.30;;;;;;5054448;28;20025;-82
2022/11/24 03:53:03;;;;;;;4.07;1.15;;;14.20;95.40;;;;;;5054201;28;20032;-81
2022/11/24 03:55:29;;;;;;;5.78;1.10;;;14.10;95.40;;;;;;5055381;28;20029;-81
2022/11/24 03:57:55;;;;;;;5.97;1.23;;;14.20;95.60;;;;;;5055860;28;20036;-81
2022/11/24 04:00:20;;;;;;;4.63;0.80;;;14.20;95.70;;;;;;5060146;28;20424;-82
2022/11/24 04:02:47;;;;;;;7.30;1.45;;;14.20;95.60;;;;;;5066654;28;20039;-81
2022/11/24 04:05:13;;;;;;;6.40;1.30;;;14.10;95.40;;;;;;5053942;28;20021;-81
2022/11/24 04:07:39;;;;;;;4.60;1.08;;;14.20;95.40;;;;;;5052562;28;20037;-81
2022/11/24 04:10:05;;;;;;;4.60;1.02;;;14.20;95.30;;;;;;5054888;28;20025;-81
2022/11/24 04:12:43;;;;;;;3.72;1.42;;;14.20;95.30;;;;;;5054940;28;20021;-81
2022/11/24 04:15:10;;;;;;;5.10;1.17;;;14.10;95.40;;;;;;5055314;28;20021;-81
2022/11/24 04:17:36;;;;;;;6.70;1.17;;;14.20;95.40;;;;;;5055229;28;20032;-81
2022/11/24 04:20:02;;;;;;;5.03;0.90;;;14.20;95.20;;;;;;5054833;28;20033;-81
2022/11/24 04:22:28;;;;;;;6.55;1.20;;;14.20;95.50;;;;;;5054909;28;20037;-81
2022/11/24 04:24:53;;;;;;;4.65;0.70;;;14.20;95.40;;;;;;5055306;28;20100;-81
2022/11/24 04:27:19;;;;;;;5.38;1.20;;;14.30;95.50;;;;;;5055137;28;20104;-81
2022/11/24 04:29:44;;;;;;;4.22;1.10;;;14.20;95.40;;;;;;5055390;28;20072;-81
2022/11/24 04:32:10;;;;;;;3.20;0.70;;;14.20;95.30;;;;;;5056190;28;20467;-81
2022/11/24 04:34:36;;;;;;;3.45;0.75;;;14.20;95.30;;;;;;5056627;28;20082;-81
2022/11/24 04:37:02;;;;;;;3.78;0.68;;;14.20;95.10;;;;;;5054979;28;20496;-81
2022/11/24 04:39:28;;;;;;;4.60;0.77;;;14.20;95.20;;;;;;5054940;28;20025;-82
2022/11/24 04:41:53;;;;;;;5.32;0.95;;;14.20;95.10;;;;;;5054555;28;20033;-82
2022/11/24 04:44:19;;;;;;;5.68;0.70;;;14.10;95.20;;;;;;5054620;28;20032;-82
2022/11/24 04:46:45;;;;;;;4.63;0.88;;;14.20;95.20;;;;;;5054588;28;20112;-82
2022/11/24 04:49:10;;;;;;;6.80;0.88;;;14.20;95.10;;;;;;5054572;28;20013;-80
2022/11/24 04:51:37;;;;;;;4.25;0.73;;;14.10;95.10;;;;;;5054028;28;20024;-80
2022/11/24 04:54:04;;;;;;;3.22;0.63;;;14.10;95.10;;;;;;5054516;28;20500;-81
2022/11/24 04:56:29;;;;;;;2.72;0.80;;;14.10;95.30;;;;;;5053196;28;20028;-81
2022/11/24 04:58:55;;;;;;;4.97;0.77;;;14.10;95.10;;;;;;5054388;28;20501;-82
2022/11/24 05:01:21;;;;;;;6.35;0.95;;;14.10;95.30;;;;;;5054587;28;20389;-81
2022/11/24 05:03:46;;;;;;;4.03;0.63;;;14.00;95.30;;;;;;5054333;28;20029;-81
2022/11/24 05:06:12;;;;;;;2.90;0.60;;;14.10;95.10;;;;;;5053913;28;20021;-81
2022/11/24 05:08:37;;;;;;;4.30;0.90;;;14.00;95.10;;;;;;5054197;28;20067;-81
2022/11/24 05:11:05;;;;;;;3.03;0.82;;;14.00;95.10;;;;;;5054270;28;20082;-82
2022/11/24 05:13:30;;;;;;;3.90;0.93;;;14.10;95.00;;;;;;5054117;28;20048;-81
2022/11/24 05:15:56;;;;;;;4.03;0.85;;;14.10;95.00;;;;;;5054030;28;20437;-82
2022/11/24 05:18:22;;;;;;;4.88;0.88;;;14.10;95.10;;;;;;5053885;28;20021;-82
2022/11/24 05:20:48;;;;;;;4.97;1.10;;;14.10;95.20;;;;;;5053535;28;20029;-81
2022/11/24 05:23:14;;;;;;;6.00;1.40;;;14.00;95.10;;;;;;5052600;28;20410;-85
2022/11/24 05:25:40;;;;;;;4.22;1.00;;;14.30;94.10;;;;;;5052920;28;20017;-82
2022/11/24 05:28:08;;;;;;;3.35;0.43;;;14.50;93.40;;;;;;5053753;28;20029;-83
2022/11/24 05:30:36;;;;;;;3.30;0.73;;;14.60;93.20;;;;;;5053594;28;20487;-85
2022/11/24 05:33:14;;;;;;;3.03;0.88;;;14.60;93.10;;;;;;5055412;28;20036;-83
2022/11/24 05:35:40;;;;;;;3.45;0.82;;;14.60;93.00;;;;;;5070554;28;20020;-83
2022/11/24 05:38:06;;;;;;;3.95;0.82;;;14.60;93.00;;;;;;5068403;28;20100;-82
2022/11/24 05:40:31;;;;;;;3.55;0.50;;;14.70;93.10;;;;;;5056861;28;20025;-82
2022/11/24 05:42:57;;;;;;;3.50;0.70;;;14.70;93.10;;;;;;5058695;28;20167;-83
2022/11/24 05:45:22;;;;;;;4.88;0.90;;;14.70;92.70;;;;;;5061146;28;20044;-84
2022/11/24 05:47:50;;;;;;;3.70;0.47;;;14.70;93.00;;;;;;5062362;28;20031;-78
2022/11/24 05:50:17;;;;;;;5.50;0.70;;;14.70;93.00;;;;;;5058066;28;20091;-85
2022/11/24 05:52:44;;;;;;;4.32;0.57;;;14.60;93.10;;;;;;5070360;28;20062;-87
2022/11/24 05:55:10;;;;;;;2.15;0.57;;;14.70;93.00;;;;;;5054514;28;20071;-87
2022/11/24 05:57:36;;;;;;;3.15;0.63;;;14.60;93.00;;;;;;5064850;28;20025;-83
2022/11/24 06:00:03;;;;;;;3.65;0.60;;;14.60;93.10;;;;;;5060317;28;20031;-84
2022/11/24 06:02:29;;;;;;;2.50;0.45;;;14.60;93.20;;;;;;5060424;28;20052;-80
2022/11/24 06:04:54;;;;;;;3.58;0.75;;;14.70;93.20;;;;;;5061659;28;20021;-84
2022/11/24 06:07:20;;;;;;;5.40;0.80;;;14.60;93.20;;;;;;5058333;28;20485;-83
2022/11/24 06:09:46;;;;;;;4.80;1.05;;;14.60;93.20;;;;;;5055871;28;22242;-84
2022/11/24 06:12:12;;;;;;;5.15;0.80;;;14.70;93.20;;;;;;5061039;28;20019;-83
2022/11/24 06:14:38;;;;;;;3.35;0.80;;;14.60;93.20;;;;;;5067315;28;20458;-83
2022/11/24 06:17:05;;;;;;;2.17;0.50;;;14.60;93.20;;;;;;5056036;28;20017;-84
2022/11/24 06:19:30;;;;;;;4.30;0.60;;;14.60;93.30;;;;;;5055146;28;20028;-80
2022/11/24 06:21:56;;;;;;;5.25;1.30;;;14.60;93.20;;;;;;5056477;28;20051;-80
2022/11/24 06:24:23;;;;;;;3.75;0.88;;;14.60;93.30;;;;;;5064623;28;20143;-80
2022/11/24 06:26:49;;;;;;;3.55;0.77;;;14.60;93.30;;;;;;5057059;28;20112;-82
2022/11/24 06:29:14;;;;;;;3.85;1.02;;;14.60;93.30;;;;;;5057917;28;20108;-86
2022/11/24 06:31:40;;;;;;;4.88;0.93;;;14.60;93.10;;;;;;5075366;28;20025;-84
2022/11/24 06:34:09;;;;;;;2.97;1.02;;;14.60;93.00;;;;;;5055806;28;20485;-82
2022/11/24 06:36:35;;;;;;;4.57;1.40;;;14.50;93.20;;;;;;5060102;28;20021;-82
2022/11/24 06:39:01;;;;;;;4.43;0.68;;;14.60;93.20;;;;;;5051378;28;20488;-84
2022/11/24 06:41:27;;;;;;;3.92;0.70;;;14.50;93.20;;;;;;5052261;28;20052;-84
2022/11/24 06:43:53;;;;;;;6.72;1.10;;;14.50;93.30;;;;;;5061448;28;20601;-85
2022/11/24 06:46:19;;;;;;;6.57;1.60;;;14.50;93.30;;;;;;5058118;28;20474;-82
2022/11/24 06:48:45;;;;;;;8.73;1.45;;;14.40;92.70;;;;;;5055679;28;20247;-85
2022/11/24 06:51:11;;;;;;;9.27;1.23;;;14.40;92.70;;;;;;5075721;28;20024;-84
2022/11/24 06:53:38;;;;;;;4.88;1.10;;;14.40;92.60;;;;;;5084249;28;20384;-83
2022/11/24 06:56:13;;;;;;;5.07;0.70;;;14.40;93.00;;;;;;5082294;28;20374;-80
2022/11/24 06:58:47;;;;;;;5.88;1.40;;;14.20;94.40;;;;;;5060977;28;20543;-79
2022/11/24 07:01:17;;;;;;;3.78;0.80;;;14.10;94.40;;;;;;5064415;28;20085;-79
2022/11/24 07:03:43;;;;;;;9.25;1.08;;;14.20;94.50;;;;;;5076051;28;20024;-80
2022/11/24 07:06:11;;;;;;;8.05;1.40;;;14.20;94.60;;;;;;5059149;28;20435;-82
2022/11/24 07:08:37;;;;;;;11.05;1.30;;;14.20;94.70;;;;;;5074413;28;20067;-77
2022/11/24 07:11:05;;;;;;;8.50;1.38;;;14.10;94.80;;;;;;5062766;28;20040;-78
2022/11/24 07:13:30;;;;;;;14.32;1.80;;;14.00;94.90;;;;;;5061307;28;20036;-79
2022/11/24 07:15:56;;;;;;;10.73;1.92;;;14.00;95.10;;;;;;5071060;28;20016;-79
2022/11/24 07:18:21;;;;;;;10.73;2.05;;;13.90;95.20;;;;;;5077378;28;20670;-80
2022/11/24 07:20:47;;;;;;;9.82;1.85;;;13.90;95.30;;;;;;5062336;28;20390;-80
2022/11/24 07:23:12;;;;;;;17.58;1.88;;;13.80;95.40;;;;;;5059243;28;20478;-79
2022/11/24 07:25:38;;;;;;;10.30;1.98;;;13.90;95.70;;;;;;5061968;28;20142;-79
2022/11/24 07:28:04;;;;;;;13.32;1.70;;;13.90;95.70;;;;;;5060388;28;20021;-80
2022/11/24 07:30:30;;;;;;;11.40;1.52;;;13.90;95.70;;;;;;5067636;28;20028;-80
2022/11/24 07:32:59;;;;;;;7.00;1.60;;;13.90;95.80;;;;;;5075859;28;20032;-80
2022/11/24 07:35:25;;;;;;;11.77;1.92;;;13.90;95.80;;;;;;5059620;28;20382;-81
2022/11/24 07:37:58;;;;;;;12.13;2.15;;;13.90;95.60;;;;;;5056001;28;20478;-81
2022/11/24 07:40:25;;;;;;;11.75;2.45;;;13.90;95.60;;;;;;5055417;28;20037;-81
2022/11/24 07:42:51;;;;;;;6.28;1.40;;;13.90;95.70;;;;;;5063559;28;20029;-80
2022/11/24 07:45:16;;;;;;;8.93;1.83;;;13.90;95.60;;;;;;5055536;28;20040;-81
2022/11/24 07:47:42;;;;;;;7.80;1.92;;;13.90;95.50;;;;;;5055936;28;20025;-80
2022/11/24 07:50:09;;;;;;;7.45;2.10;;;13.90;95.50;;;;;;5056134;28;20036;-78
2022/11/24 07:52:35;;;;;;;8.25;1.92;;;13.90;95.50;;;;;;5056074;28;20033;-78
2022/11/24 07:55:01;;;;;;;7.35;1.52;;;13.90;95.50;;;;;;5055391;28;20029;-80
2022/11/24 07:57:30;;;;;;;11.25;2.28;;;13.90;95.40;;;;;;5064363;28;20021;-80
2022/11/24 07:59:55;;;;;;;10.75;2.47;;;13.90;95.30;;;;;;5059290;28;20032;-78
2022/11/24 08:02:21;;;;;;;13.30;1.95;;;13.90;95.30;;;;;;5054924;28;20532;-80
2022/11/24 08:04:47;;;;;;;15.25;2.38;;;13.90;95.20;;;;;;5057614;28;20033;-78
2022/11/24 08:07:12;;;;;;;6.35;1.77;;;13.90;95.20;;;;;;5069495;28;20528;-76
2022/11/24 08:09:38;;;;;;;11.73;2.10;;;13.90;95.20;;;;;;5057911;28;20036;-78
2022/11/24 08:12:04;;;;;;;7.75;1.67;;;13.90;95.10;;;;;;5055155;28;20116;-79
2022/11/24 08:14:29;;;;;;;12.00;2.40;;;13.90;95.20;;;;;;5054067;28;20048;-80
2022/11/24 08:16:56;;;;;;;7.20;1.65;;;13.80;95.20;;;;;;5064538;28;20024;-79
2022/11/24 08:19:22;;;;;;;9.50;1.98;;;13.90;95.20;;;;;;5061416;28;20025;-78
2022/11/24 08:21:47;;;;;;;11.00;1.83;;;13.90;95.30;;;;;;5063833;28;20037;-77
2022/11/24 08:24:14;;;;;;;7.78;2.05;;;13.90;95.30;;;;;;5076371;28;20024;-77
2022/11/24 08:26:40;;;;;;;8.35;1.80;;;13.80;95.50;;;;;;5073933;28;20033;-78
2022/11/24 08:29:06;;;;;;;10.38;2.35;;;13.80;95.30;;;;;;5065926;28;20028;-78
2022/11/24 08:31:34;;;;;;;8.43;2.15;;;13.90;95.20;;;;;;5074877;28;20055;-75
2022/11/24 08:34:04;;;;;;;8.95;2.00;;;13.80;95.20;;;;;;5066432;28;20068;-78
2022/11/24 08:36:30;;;;;;;10.52;2.17;;;13.80;95.30;;;;;;5061890;28;20021;-82
2022/11/24 08:38:57;;;;;;;9.38;2.60;;;13.80;95.40;;;;;;5059421;28;20508;-78
2022/11/24 08:41:24;;;;;;;10.57;2.00;;;13.70;95.50;;;;;;5071117;28;20456;-78
2022/11/24 08:43:49;;;;;;;14.85;3.38;;;13.80;95.50;;;;;;5072297;28;20427;-78
2022/11/24 08:46:17;;;;;;;9.35;2.85;;;13.80;95.70;;;;;;5068160;28;20103;-78
2022/11/24 08:48:49;;;;;;;9.57;2.55;;;13.80;95.60;;;;;;5057614;28;20063;-78
2022/11/24 08:51:19;;;;;;;7.82;1.75;;;13.80;95.70;;;;;;5057007;28;20478;-78
2022/11/24 08:53:45;;;;;;;8.95;1.85;;;13.80;95.70;;;;;;5067183;28;20028;-78
2022/11/24 08:56:12;;;;;;;10.05;1.98;;;13.90;95.70;;;;;;5061823;28;20655;-78
2022/11/24 08:58:38;;;;;;;8.32;2.15;;;13.90;95.70;;;;;;5062683;28;20025;-78
2022/11/24 09:01:05;;;;;;;8.15;1.75;;;13.80;95.80;;;;;;5053275;28;20025;-78
2022/11/24 09:03:30;;;;;;;9.90;2.17;;;13.80;95.90;;;;;;5061511;28;20029;-78
2022/11/24 09:05:56;;;;;;;8.48;1.70;;;13.80;96.00;;;;;;5059125;28;20355;-78
2022/11/24 09:08:21;;;;;;;11.25;2.10;;;13.80;96.00;;;;;;5053700;28;20032;-78
2022/11/24 09:10:47;;;;;;;11.82;2.22;;;13.90;96.00;;;;;;5057379;28;20385;-78
2022/11/24 09:13:13;;;;;;;17.05;2.95;;;13.80;96.00;;;;;;5064417;28;20021;-78
2022/11/24 09:15:38;;;;;;;11.57;2.03;;;14.00;95.80;;;;;;5053870;28;20413;-78
2022/11/24 09:18:04;;;;;;;9.02;1.77;;;13.90;96.00;;;;;;5059908;28;20090;-78
2022/11/24 09:20:30;;;;;;;11.80;2.33;;;13.90;96.00;;;;;;5064416;28;20089;-78
2022/11/24 09:22:55;;;;;;;9.13;2.17;;;13.90;96.00;;;;;;5052623;28;20064;-78
2022/11/24 09:25:22;;;;;;;12.68;2.95;;;13.90;95.90;;;;;;5054711;28;20029;-78
2022/11/24 09:27:49;;;;;;;13.65;2.00;;;13.90;95.90;;;;;;5054466;28;20021;-79
2022/11/24 09:30:15;;;;;;;9.50;2.08;;;13.90;96.00;;;;;;5051939;28;20508;-78
2022/11/24 09:32:41;;;;;;;10.57;2.15;;;13.90;96.00;;;;;;5055274;28;20112;-79
2022/11/24 09:35:07;;;;;;;14.73;2.28;;;13.90;96.20;;;;;;5053858;28;20103;-78
2022/11/24 09:37:33;;;;;;;12.48;2.25;;;14.00;96.10;;;;;;5055594;28;20029;-81
2022/11/24 09:39:58;;;;;;;10.93;2.15;;;14.00;95.90;;;;;;5063194;28;20028;-81
2022/11/24 09:42:37;;;;;;;13.38;2.58;;;14.10;95.60;;;;;;5057377;28;20452;-79
2022/11/24 09:45:08;;;;;;;11.18;2.17;;;14.10;95.70;;;;;;5059463;28;20078;-79
2022/11/24 09:47:57;;;;;;;11.10;2.83;;;14.00;95.80;;;;;;5065145;28;20027;-81
2022/11/24 09:50:28;;;;;;;10.48;2.03;;;14.00;95.90;;;;;;5061292;28;20358;-80
2022/11/24 09:53:17;;;;;;;12.35;2.53;;;14.00;96.20;;;;;;5062955;28;20016;-79
2022/11/24 09:55:47;;;;;;;14.38;2.58;;;14.10;95.90;;;;;;5061392;28;20055;-78
2022/11/24 09:58:47;;;;;;;9.60;2.38;;;14.10;95.80;;;;;;5056988;28;20013;-78
2022/11/24 10:01:23;;;;;;;9.90;2.13;;;14.10;95.90;;;;;;5057781;28;22102;-80
2022/11/24 10:03:52;;;;;;;11.25;2.28;;;14.10;95.90;;;;;;5059041;28;20075;-80
2022/11/24 10:06:42;;;;;;;8.90;1.92;;;14.10;95.90;;;;;;5063325;28;20496;-80
2022/11/24 10:09:11;;;;;;;11.18;2.47;;;14.10;95.90;;;;;;5056511;28;20953;-80
2022/11/24 10:11:57;;;;;;;6.65;2.45;;;14.10;95.90;;;;;;5056138;28;20478;-80
2022/11/24 10:14:49;;;;;;;10.15;2.42;;;14.00;96.00;;;;;;5057105;28;20025;-83
2022/11/24 10:17:35;;;;;;;10.32;2.78;;;14.00;96.10;;;;;;5054266;28;20062;-81
2022/11/24 10:20:26;;;;;;;12.07;2.10;;;14.10;96.10;;;;;;5053639;28;20029;-70
2022/11/24 10:23:28;;;;;;;19.10;3.00;;;14.00;96.20;;;;;;5059281;28;20115;-75
2022/11/24 10:25:59;;;;;;;20.73;3.17;;;14.00;96.50;;;;;;5064933;28;20033;-77
2022/11/24 10:29:06;;;;;;;14.10;3.00;;;14.10;96.60;;;;;;5052326;28;20025;-84
2022/11/24 10:31:35;;;;;;;20.13;3.10;;;14.00;96.60;;;;;;5060211;28;20436;-79
2022/11/24 10:34:27;;;;;;;19.58;3.20;;;14.00;96.60;;;;;;5053910;28;20111;-76
2022/11/24 10:37:14;;;;;;;19.08;3.72;;;14.10;96.60;;;;;;5054597;28;20020;-79
2022/11/24 10:39:51;;;;;;;17.73;4.00;;;14.10;96.50;;;;;;5055862;28;20032;-77
2022/11/24 10:42:32;;;;;;;15.07;3.33;;;14.10;96.60;;;;;;5055323;28;20029;-76
2022/11/24 10:45:18;;;;;;;14.45;3.33;;;14.20;96.80;;;;;;5052573;28;20017;-76
2022/11/24 10:47:44;;;;;;;17.80;3.65;;;14.20;96.90;;;;;;5063122;28;20025;-76
2022/11/24 10:50:32;;;;;;;21.27;3.50;;;14.20;96.90;;;;;;5054679;28;20033;-77
2022/11/24 10:53:18;;;;;;;12.88;3.03;;;14.20;97.00;;;;;;5070921;28;20025;-79
2022/11/24 10:55:53;;;;;;;15.40;3.20;;;14.30;96.90;;;;;;5062931;28;20116;-81
2022/11/24 10:58:23;;;;;;;12.65;3.10;;;14.30;96.80;;;;;;5056582;28;20035;-82
2022/11/24 11:00:49;;;;;;;20.83;3.40;;;14.20;96.70;;;;;;5056297;28;20127;-83
2022/11/24 11:03:18;;;;;;;12.02;3.13;;;14.20;96.60;;;;;;5068472;28;20166;-80
2022/11/24 11:06:07;;;;;;;15.13;3.05;;;14.20;96.70;;;;;;5073596;28;20040;-78
2022/11/24 11:08:33;;;;;;;11.68;2.88;;;14.30;96.50;;;;;;5058243;28;20148;-80
2022/11/24 11:11:22;;;;;;;14.88;3.25;;;14.30;96.70;;;;;;5068427;28;20123;-80
2022/11/24 11:13:54;;;;;;;14.27;3.05;;;14.30;96.70;;;;;;5054833;28;20079;-75
2022/11/24 11:16:26;;;;;;;15.48;3.10;;;14.30;96.80;;;;;;5059541;28;20024;-75
2022/11/24 11:18:52;;;;;;;15.02;3.17;;;14.40;96.70;;;;;;5062982;28;20029;-75
2022/11/24 11:21:29;;;;;;;15.88;2.90;;;14.40;96.70;;;;;;5056135;28;20033;-76
2022/11/24 11:23:55;;;;;;;17.40;4.03;;;14.40;96.80;;;;;;5054476;28;20036;-75
2022/11/24 11:26:24;;;;;;;14.75;3.22;;;14.40;96.70;;;;;;5054954;28;20319;-75
2022/11/24 11:29:15;;;;;;;13.05;3.05;;;14.40;96.70;;;;;;5061740;28;20028;-76
2022/11/24 11:31:41;;;;;;;16.10;3.25;;;14.40;96.70;;;;;;5072429;28;20119;-76
2022/11/24 11:34:16;;;;;;;11.63;2.72;;;14.50;96.60;;;;;;5075173;28;20595;-77
2022/11/24 11:36:51;;;;;;;13.57;2.67;;;14.70;96.30;;;;;;5074893;28;20021;-77
2022/11/24 11:39:23;;;;;;;11.32;2.88;;;14.70;96.20;;;;;;5075306;28;20091;-81
2022/11/24 11:41:58;;;;;;;12.05;3.15;;;14.80;96.10;;;;;;5058713;28;20086;-83
2022/11/24 11:44:36;;;;;;;11.27;2.88;;;14.70;96.10;;;;;;5055218;28;20013;-75
2022/11/24 11:47:24;;;;;;;17.92;3.47;;;14.70;96.20;;;;;;5054695;28;20025;-78
2022/11/24 11:49:49;;;;;;;10.00;2.65;;;14.70;96.20;;;;;;5054872;28;20029;-74
2022/11/24 11:52:18;;;;;;;10.45;2.22;;;14.70;96.20;;;;;;5054148;28;20032;-78
2022/11/24 11:55:01;;;;;;;12.80;2.75;;;14.70;96.30;;;;;;5063350;28;20111;-77
2022/11/24 11:57:35;;;;;;;10.48;2.72;;;14.70;96.20;;;;;;5068352;28;20096;-75
2022/11/24 12:00:13;;;;;;;12.05;3.22;;;14.70;96.20;;;;;;5052344;28;20441;-72
2022/11/24 12:02:44;;;;;;;13.82;3.00;;;14.70;96.30;;;;;;5070024;28;20033;-75
2022/11/24 12:05:28;;;;;;;12.40;2.47;;;14.70;96.40;;;;;;5066786;28;20017;-76
2022/11/24 12:08:10;;;;;;;10.90;3.03;;;14.70;96.30;;;;;;5074882;28;20043;-70
2022/11/24 12:10:39;;;;;;;11.80;2.90;;;14.80;96.30;;;;;;5057949;28;20017;-72
2022/11/24 12:13:13;;;;;;;9.90;2.92;;;14.80;96.10;;;;;;5055076;28;20025;-75
2022/11/24 12:15:55;;;;;;;12.73;2.67;;;14.70;96.20;;;;;;5057632;28;20040;-74
2022/11/24 12:18:52;;;;;;;12.55;3.42;;;14.80;96.20;;;;;;5063727;28;20432;-72
2022/11/24 12:21:42;;;;;;;12.70;2.33;;;14.80;96.00;;;;;;5071585;28;20063;-72
2022/11/24 12:24:20;;;;;;;14.80;2.90;;;14.80;96.00;;;;;;5074982;28;20548;-75
2022/11/24 12:26:49;;;;;;;11.63;2.97;;;14.80;95.90;;;;;;5066500;28;20009;-75
2022/11/24 12:29:25;;;;;;;9.27;2.10;;;14.90;95.60;;;;;;5074305;28;20112;-75
2022/11/24 12:32:08;;;;;;;14.05;2.63;;;14.90;95.90;;;;;;5071412;28;20543;-75
2022/11/24 12:34:53;;;;;;;10.45;2.45;;;14.90;95.90;;;;;;5073823;28;20097;-74
2022/11/24 12:37:32;;;;;;;13.15;3.22;;;15.00;95.80;;;;;;5071628;28;20019;-73
2022/11/24 12:40:24;;;;;;;10.80;2.88;;;14.90;95.90;;;;;;5069353;28;20033;-76
2022/11/24 12:43:20;;;;;;;10.15;3.03;;;14.90;95.90;;;;;;5072898;28;20037;-77
2022/11/24 12:46:03;;;;;;;9.13;2.85;;;14.90;96.00;;;;;;5065571;28;20025;-73
2022/11/24 12:49:03;;;;;;;15.07;3.13;;;14.90;96.00;;;;;;5054704;28;20100;-71
2022/11/24 12:51:34;;;;;;;9.48;2.22;;;14.90;95.90;;;;;;5062504;28;20029;-78
2022/11/24 12:54:04;;;;;;;15.50;2.70;;;15.00;95.90;;;;;;5074717;28;20104;-76
2022/11/24 12:56:42;;;;;;;11.35;2.85;;;15.00;95.90;;;;;;5069702;28;20433;-69